createdAt,value
2022-12-16T00:53:47.759Z,33.70
2022-12-16T00:54:49.502Z,34.70
2022-12-16T00:56:00.405Z,35.10
2022-12-16T00:57:02.011Z,35.00
2022-12-16T00:58:03.625Z,34.20
2022-12-16T00:59:05.255Z,34.30
2022-12-16T01:00:12.273Z,35.60
2022-12-16T01:01:14.606Z,35.60
2022-12-16T01:02:16.390Z,35.40
2022-12-16T01:03:33.323Z,36.10
2022-12-16T01:04:35.055Z,35.80
2022-12-16T01:05:38.007Z,34.90
2022-12-16T01:06:40.162Z,35.60
2022-12-16T01:07:42.418Z,35.50
2022-12-16T01:08:50.554Z,37.00
2022-12-16T01:09:54.440Z,34.90
2022-12-16T01:10:57.344Z,35.60
2022-12-16T01:11:59.093Z,37.50
2022-12-16T01:13:00.892Z,36.40
2022-12-16T01:14:02.534Z,36.20
2022-12-16T01:15:07.494Z,35.60
2022-12-16T01:16:09.764Z,36.90
2022-12-16T01:17:11.429Z,34.60
2022-12-16T01:18:13.080Z,36.20
2022-12-16T01:19:14.998Z,36.50
2022-12-16T01:20:17.024Z,35.60
2022-12-16T01:21:18.883Z,34.90
2022-12-16T01:22:21.822Z,36.50
2022-12-16T01:23:24.046Z,35.20
2022-12-16T01:24:25.704Z,37.00
2022-12-16T01:25:27.617Z,35.90
2022-12-16T01:26:29.595Z,36.20
2022-12-16T01:27:31.331Z,36.00
2022-12-16T01:28:33.032Z,36.90
2022-12-16T01:29:34.648Z,35.40
2022-12-16T01:30:36.318Z,37.10
2022-12-16T01:31:38.211Z,36.10
2022-12-16T01:32:40.033Z,39.20
2022-12-16T01:33:41.628Z,37.10
2022-12-16T01:34:46.273Z,37.80
2022-12-16T01:36:01.711Z,37.90
2022-12-16T01:37:03.507Z,38.60
2022-12-16T01:38:05.189Z,38.40
2022-12-16T01:39:09.087Z,37.20
2022-12-16T01:40:21.636Z,37.50
2022-12-16T01:41:23.511Z,37.20
2022-12-16T01:42:29.526Z,35.90
2022-12-16T01:43:34.560Z,35.80
2022-12-16T01:44:36.929Z,36.50
2022-12-16T01:45:38.759Z,36.70
2022-12-16T01:46:41.493Z,38.50
2022-12-16T01:47:43.252Z,37.80
2022-12-16T01:49:00.043Z,36.50
2022-12-16T01:50:06.415Z,37.50
2022-12-16T01:51:17.985Z,37.00
2022-12-16T01:52:23.427Z,38.20
2022-12-16T01:53:25.758Z,36.80
2022-12-16T01:55:08.682Z,37.20
2022-12-16T01:56:15.562Z,35.40
2022-12-16T01:57:25.003Z,35.30
2022-12-16T01:58:34.322Z,36.00
2022-12-16T01:59:39.630Z,35.70
2022-12-16T02:00:41.400Z,37.10
2022-12-16T02:01:43.948Z,36.20
2022-12-16T02:02:47.356Z,33.50
2022-12-16T02:03:55.785Z,32.50
2022-12-16T02:05:30.120Z,34.80
2022-12-16T02:06:32.307Z,33.50
2022-12-16T02:07:34.024Z,34.60
2022-12-16T02:08:35.851Z,34.90
2022-12-16T02:09:37.716Z,36.20
2022-12-16T02:10:42.384Z,33.50
2022-12-16T02:11:46.748Z,34.30
2022-12-16T02:13:05.220Z,33.90
2022-12-16T02:14:19.542Z,32.20
2022-12-16T02:15:36.789Z,33.80
2022-12-16T02:16:41.641Z,35.90
2022-12-16T02:18:01.961Z,35.30
2022-12-16T02:19:12.751Z,35.90
2022-12-16T02:20:24.729Z,38.10
2022-12-16T02:21:32.481Z,36.30
2022-12-16T02:22:34.049Z,34.50
2022-12-16T02:23:38.725Z,34.30
2022-12-16T02:24:55.758Z,33.10
2022-12-16T02:26:39.316Z,35.80
2022-12-16T02:27:59.457Z,34.40
2022-12-16T02:29:13.300Z,34.00
2022-12-16T02:31:55.314Z,35.70
2022-12-16T02:33:16.074Z,33.80
2022-12-16T02:34:56.624Z,34.40
2022-12-16T02:36:11.165Z,35.90
2022-12-16T02:37:28.005Z,34.30
2022-12-16T02:38:56.343Z,34.80
2022-12-16T02:40:06.182Z,34.30
2022-12-16T02:41:25.795Z,36.10
2022-12-16T02:42:53.297Z,35.50
2022-12-16T02:44:06.148Z,38.30
2022-12-16T02:45:27.808Z,37.10
2022-12-16T02:46:34.961Z,36.30
2022-12-16T02:47:36.677Z,36.80
2022-12-16T02:48:38.313Z,38.00
2022-12-16T02:49:54.497Z,36.50
2022-12-16T02:50:56.282Z,36.80
2022-12-16T02:52:00.327Z,37.00
2022-12-16T02:53:03.832Z,37.00
2022-12-16T02:54:09.009Z,37.70
2022-12-16T02:55:11.290Z,37.30
2022-12-16T02:56:37.536Z,38.10
2022-12-16T02:57:59.067Z,38.00
2022-12-16T02:59:15.433Z,36.10
2022-12-16T03:00:22.090Z,36.50
2022-12-16T03:01:36.666Z,37.70
2022-12-16T03:02:50.521Z,40.20
2022-12-16T03:04:08.919Z,36.70
2022-12-16T03:05:24.013Z,36.70
2022-12-16T03:06:29.085Z,40.00
2022-12-16T03:07:33.648Z,40.30
2022-12-16T03:08:40.405Z,37.60
2022-12-16T03:09:46.156Z,38.20
2022-12-16T03:10:54.597Z,39.90
2022-12-16T03:12:02.612Z,40.20
2022-12-16T03:13:06.143Z,39.60
2022-12-16T03:14:12.678Z,38.30
2022-12-16T03:15:20.315Z,41.20
2022-12-16T03:16:26.944Z,41.40
2022-12-16T03:17:28.879Z,39.30
2022-12-16T03:18:31.999Z,39.80
2022-12-16T03:19:35.408Z,38.50
2022-12-16T03:20:50.769Z,41.00
2022-12-16T03:22:28.975Z,41.20
2022-12-16T03:23:37.513Z,39.80
2022-12-16T03:24:40.699Z,39.90
2022-12-16T03:25:45.206Z,39.80
2022-12-16T03:27:07.313Z,40.30
2022-12-16T03:28:35.111Z,39.00
2022-12-16T03:30:03.138Z,39.40
2022-12-16T03:31:17.318Z,40.70
2022-12-16T03:32:38.641Z,41.60
2022-12-16T03:33:50.593Z,39.70
2022-12-16T03:35:24.222Z,41.50
2022-12-16T03:36:27.207Z,41.00
2022-12-16T03:37:33.234Z,42.50
2022-12-16T03:38:37.682Z,44.00
2022-12-16T03:39:51.405Z,41.90
2022-12-16T03:40:56.809Z,39.50
2022-12-16T03:42:01.927Z,42.10
2022-12-16T03:43:04.871Z,41.50
2022-12-16T03:44:07.844Z,41.70
2022-12-16T03:45:18.752Z,41.50
2022-12-16T03:46:20.803Z,42.60
2022-12-16T03:47:26.954Z,41.80
2022-12-16T03:48:29.104Z,41.60
2022-12-16T03:49:30.704Z,38.80
2022-12-16T03:50:34.622Z,40.20
2022-12-16T03:51:36.293Z,38.70
2022-12-16T03:52:37.978Z,39.70
2022-12-16T03:53:39.629Z,39.30
2022-12-16T03:54:41.546Z,38.40
2022-12-16T03:55:43.484Z,41.70
2022-12-16T03:56:45.674Z,41.00
2022-12-16T03:57:47.328Z,43.00
2022-12-16T03:58:49.202Z,40.60
2022-12-16T03:59:50.866Z,43.00
2022-12-16T04:00:52.664Z,40.40
2022-12-16T04:01:54.473Z,40.90
2022-12-16T04:02:56.445Z,40.10
2022-12-16T04:03:58.502Z,41.70
2022-12-16T04:05:00.260Z,39.50
2022-12-16T04:06:02.095Z,41.20
2022-12-16T04:07:23.737Z,39.80
2022-12-16T04:08:25.445Z,41.10
2022-12-16T04:09:27.056Z,39.90
2022-12-16T04:10:47.689Z,41.00
2022-12-16T04:12:07.890Z,38.20
2022-12-16T04:13:29.442Z,40.70
2022-12-16T04:14:53.433Z,40.60
2022-12-16T04:16:14.421Z,40.80
2022-12-16T04:18:57.088Z,40.90
2022-12-16T04:20:17.599Z,41.00
2022-12-16T04:21:38.127Z,39.30
2022-12-16T04:23:01.782Z,42.30
2022-12-16T04:24:18.868Z,39.90
2022-12-16T04:25:23.927Z,38.60
2022-12-16T04:26:25.712Z,42.50
2022-12-16T04:27:28.778Z,40.70
2022-12-16T04:28:30.711Z,42.60
2022-12-16T04:29:33.089Z,43.30
2022-12-16T04:30:35.271Z,41.90
2022-12-16T04:31:37.028Z,41.80
2022-12-16T04:32:57.887Z,40.70
2022-12-16T04:34:18.352Z,41.00
2022-12-16T04:35:38.894Z,40.60
2022-12-16T04:36:59.039Z,39.90
2022-12-16T04:38:19.576Z,40.80
2022-12-16T04:39:39.563Z,39.10
2022-12-16T04:41:00.190Z,40.30
2022-12-16T04:42:20.639Z,41.30
2022-12-16T04:43:41.132Z,39.30
2022-12-16T04:45:01.403Z,36.70
2022-12-16T04:46:22.325Z,38.90
2022-12-16T04:49:04.650Z,40.80
2022-12-16T04:50:25.566Z,39.30
2022-12-16T04:51:46.027Z,38.90
2022-12-16T04:53:09.354Z,38.50
2022-12-16T04:54:29.784Z,39.00
2022-12-16T04:55:50.250Z,40.40
2022-12-16T04:57:10.822Z,39.90
2022-12-16T04:58:30.922Z,40.20
2022-12-16T04:59:51.329Z,40.80
2022-12-16T05:01:12.038Z,43.90
2022-12-16T05:02:37.008Z,38.90
2022-12-16T05:04:17.130Z,41.60
2022-12-16T05:05:37.723Z,40.90
2022-12-16T05:06:58.321Z,45.70
2022-12-16T05:08:19.144Z,40.60
2022-12-16T05:09:39.327Z,43.70
2022-12-16T05:10:59.448Z,43.90
2022-12-16T05:12:19.746Z,43.60
2022-12-16T05:13:40.085Z,42.70
2022-12-16T05:15:00.296Z,43.50
2022-12-16T05:16:20.553Z,44.70
2022-12-16T05:17:40.987Z,44.50
2022-12-16T05:19:01.573Z,42.70
2022-12-16T05:20:22.404Z,44.10
2022-12-16T05:21:42.727Z,42.50
2022-12-16T05:23:02.876Z,45.40
2022-12-16T05:24:23.446Z,43.00
2022-12-16T05:25:44.214Z,44.30
2022-12-16T05:28:25.612Z,43.20
2022-12-16T05:29:45.759Z,43.20
2022-12-16T05:31:06.596Z,43.80
2022-12-16T05:32:27.090Z,42.20
2022-12-16T05:33:47.609Z,44.20
2022-12-16T05:36:29.017Z,40.20
2022-12-16T05:37:49.373Z,42.80
2022-12-16T05:39:10.209Z,43.90
2022-12-16T05:40:31.239Z,45.10
2022-12-16T05:43:16.556Z,44.10
2022-12-16T05:44:37.387Z,45.40
2022-12-16T05:45:58.934Z,47.70
2022-12-16T05:47:19.651Z,47.60
2022-12-16T05:48:44.473Z,47.60
2022-12-16T05:50:07.926Z,46.80
2022-12-16T05:51:29.170Z,49.00
2022-12-16T05:52:49.817Z,49.80
2022-12-16T05:54:10.273Z,44.10
2022-12-16T05:55:34.121Z,49.20
2022-12-16T05:56:55.055Z,47.70
2022-12-16T05:58:15.446Z,47.90
2022-12-16T05:59:35.856Z,48.00
2022-12-16T06:00:55.918Z,49.20
2022-12-16T06:02:16.791Z,49.00
2022-12-16T06:03:38.210Z,47.40
2022-12-16T06:04:58.863Z,48.30
2022-12-16T06:06:19.313Z,50.40
2022-12-16T06:07:40.040Z,48.80
2022-12-16T06:09:00.383Z,48.50
2022-12-16T06:10:20.817Z,46.90
2022-12-16T06:11:40.940Z,45.30
2022-12-16T06:13:05.158Z,47.60
2022-12-16T06:14:25.887Z,46.90
2022-12-16T06:15:46.152Z,47.40
2022-12-16T06:17:06.467Z,49.20
2022-12-16T06:18:26.909Z,46.00
2022-12-16T06:19:47.239Z,48.80
2022-12-16T06:21:07.847Z,45.80
2022-12-16T06:22:28.343Z,46.60
2022-12-16T06:23:49.336Z,47.40
2022-12-16T06:26:30.280Z,46.30
2022-12-16T06:27:50.573Z,47.00
2022-12-16T06:29:11.092Z,46.30
2022-12-16T06:30:31.380Z,44.60
2022-12-16T06:31:51.812Z,45.70
2022-12-16T06:33:12.188Z,46.20
2022-12-16T06:34:33.064Z,44.10
2022-12-16T06:37:13.702Z,45.80
2022-12-16T06:38:34.030Z,44.10
2022-12-16T06:39:54.580Z,45.40
2022-12-16T06:41:14.900Z,45.80
2022-12-16T06:42:35.650Z,46.00
2022-12-16T06:45:16.586Z,44.30
2022-12-16T06:46:37.011Z,44.30
2022-12-16T06:47:58.620Z,45.10
2022-12-16T06:49:19.094Z,46.50
2022-12-16T06:50:44.696Z,45.70
2022-12-16T06:52:05.306Z,45.80
2022-12-16T06:53:25.607Z,47.30
2022-12-16T06:54:45.825Z,43.50
2022-12-16T06:56:06.511Z,47.90
2022-12-16T06:57:26.874Z,47.00
2022-12-16T06:58:47.152Z,47.60
2022-12-16T07:00:07.448Z,48.30
2022-12-16T07:01:28.075Z,47.80
2022-12-16T07:02:48.546Z,46.10
2022-12-16T07:05:29.781Z,45.50
2022-12-16T07:06:50.052Z,44.10
2022-12-16T07:08:10.522Z,46.20
2022-12-16T07:09:30.759Z,44.50
2022-12-16T07:10:51.388Z,45.70
2022-12-16T07:12:11.855Z,45.20
2022-12-16T07:13:36.579Z,46.00
2022-12-16T07:14:57.285Z,47.20
2022-12-16T07:17:38.394Z,45.70
2022-12-16T07:18:58.986Z,48.20
2022-12-16T07:20:18.908Z,46.60
2022-12-16T07:21:38.979Z,48.50
2022-12-16T07:23:11.903Z,45.50
2022-12-16T07:24:36.630Z,46.40
2022-12-16T07:26:07.235Z,45.40
2022-12-16T07:27:27.693Z,48.30
2022-12-16T07:28:48.179Z,49.50
2022-12-16T07:30:08.570Z,48.90
2022-12-16T07:31:29.153Z,47.20
2022-12-16T07:32:49.273Z,46.30
2022-12-16T07:34:10.212Z,46.40
2022-12-16T07:35:31.000Z,47.10
2022-12-16T07:36:51.346Z,46.20
2022-12-16T07:38:11.381Z,45.90
2022-12-16T07:39:32.107Z,44.80
2022-12-16T07:40:52.850Z,46.70
2022-12-16T07:42:12.959Z,46.10
2022-12-16T07:43:33.685Z,46.40
2022-12-16T07:44:54.247Z,47.60
2022-12-16T07:46:14.566Z,45.00
2022-12-16T07:47:35.081Z,43.70
2022-12-16T07:48:55.460Z,46.90
2022-12-16T07:50:16.450Z,44.20
2022-12-16T07:51:36.854Z,43.60
2022-12-16T07:53:13.676Z,46.30
2022-12-16T07:54:34.187Z,45.40
2022-12-16T07:55:54.637Z,47.10
2022-12-16T07:57:16.074Z,46.70
2022-12-16T07:58:36.497Z,46.00
2022-12-16T07:59:56.532Z,43.90
2022-12-16T08:01:18.752Z,33.50
2022-12-16T08:02:39.181Z,43.50
2022-12-16T08:03:59.849Z,45.10
2022-12-16T08:05:20.748Z,47.10
2022-12-16T08:08:02.135Z,48.20
2022-12-16T08:09:22.561Z,46.10
2022-12-16T08:10:43.147Z,47.60
2022-12-16T08:12:03.847Z,48.50
2022-12-16T08:13:26.135Z,49.00
2022-12-16T08:14:46.370Z,48.70
2022-12-16T08:16:06.480Z,47.50
2022-12-16T08:17:47.139Z,50.80
2022-12-16T08:19:11.035Z,51.20
2022-12-16T08:20:31.847Z,48.10
2022-12-16T08:21:52.069Z,50.20
2022-12-16T08:23:12.595Z,49.20
2022-12-16T08:24:33.303Z,50.30
2022-12-16T08:27:16.055Z,49.10
2022-12-16T08:29:57.081Z,50.60
2022-12-16T08:31:17.471Z,50.50
2022-12-16T08:32:37.854Z,52.10
2022-12-16T08:33:58.321Z,52.90
2022-12-16T08:35:19.197Z,50.30
2022-12-16T08:36:39.879Z,51.20
2022-12-16T08:38:00.508Z,52.80
2022-12-16T08:39:20.927Z,52.00
2022-12-16T08:40:41.246Z,52.10
2022-12-16T08:42:02.058Z,50.50
2022-12-16T08:44:43.298Z,47.20
2022-12-16T08:47:24.334Z,49.90
2022-12-16T08:48:44.587Z,48.60
2022-12-16T08:50:04.624Z,49.20
2022-12-16T08:51:25.584Z,53.30
2022-12-16T08:52:45.834Z,51.80
2022-12-16T08:54:20.099Z,51.50
2022-12-16T08:55:40.767Z,51.50
2022-12-16T08:57:01.358Z,52.00
2022-12-16T08:58:21.685Z,51.80
2022-12-16T08:59:42.144Z,51.80
2022-12-16T09:01:07.051Z,52.60
2022-12-16T09:02:29.766Z,49.40
2022-12-16T09:03:50.796Z,49.90
2022-12-16T09:06:37.004Z,48.30
2022-12-16T09:08:00.565Z,49.30
2022-12-16T09:09:20.936Z,51.00
2022-12-16T09:10:41.647Z,49.40
2022-12-16T09:13:27.441Z,48.70
2022-12-16T09:14:47.509Z,49.30
2022-12-16T09:16:07.790Z,50.60
2022-12-16T09:17:30.914Z,45.10
2022-12-16T09:20:11.552Z,46.00
2022-12-16T09:21:33.443Z,47.30
2022-12-16T09:22:54.324Z,46.30
2022-12-16T09:24:15.934Z,49.40
2022-12-16T09:26:56.557Z,48.70
2022-12-16T09:28:17.094Z,49.00
2022-12-16T09:29:41.891Z,47.60
2022-12-16T09:31:04.030Z,51.20
2022-12-16T09:32:24.451Z,48.50
2022-12-16T09:33:44.942Z,48.30
2022-12-16T09:35:10.046Z,50.30
2022-12-16T09:36:46.980Z,46.50
2022-12-16T09:38:07.637Z,54.50
2022-12-16T09:39:28.093Z,51.50
2022-12-16T09:40:48.552Z,50.00
2022-12-16T09:42:14.858Z,51.30
2022-12-16T09:44:02.722Z,46.40
2022-12-16T09:45:41.704Z,47.90
2022-12-16T09:47:08.710Z,48.40
2022-12-16T09:49:11.146Z,51.50
2022-12-16T09:50:41.292Z,49.50
2022-12-16T09:52:04.246Z,49.40
2022-12-16T09:53:31.414Z,50.30
2022-12-16T09:54:56.728Z,49.50
2022-12-16T09:56:20.436Z,49.80
2022-12-16T09:57:43.273Z,53.20
2022-12-16T09:59:14.634Z,52.00
2022-12-16T10:00:41.482Z,51.90
2022-12-16T10:02:02.799Z,49.90
2022-12-16T10:03:34.919Z,50.70
2022-12-16T10:04:55.924Z,51.70
2022-12-16T10:07:49.953Z,48.50
2022-12-16T10:09:20.195Z,51.50
2022-12-16T10:11:30.843Z,53.70
2022-12-16T10:13:14.409Z,50.80
2022-12-16T10:14:49.282Z,50.60
2022-12-16T10:16:18.638Z,52.10
2022-12-16T10:17:43.946Z,54.40
2022-12-16T10:19:28.182Z,55.80
2022-12-16T10:20:52.055Z,55.00
2022-12-16T10:22:31.075Z,55.60
2022-12-16T10:24:23.145Z,53.70
2022-12-16T10:26:05.604Z,51.00
2022-12-16T10:27:35.290Z,51.40
2022-12-16T10:29:07.461Z,49.00
2022-12-16T10:30:32.661Z,49.60
2022-12-16T10:31:55.197Z,52.90
2022-12-16T10:33:17.986Z,53.60
2022-12-16T10:34:50.807Z,53.30
2022-12-16T10:36:13.842Z,52.20
2022-12-16T10:37:42.387Z,54.50
2022-12-16T10:39:18.274Z,51.20
2022-12-16T10:40:44.608Z,50.60
2022-12-16T10:42:10.644Z,49.30
2022-12-16T10:43:39.014Z,53.00
2022-12-16T10:45:13.694Z,51.70
2022-12-16T10:46:40.640Z,53.00
2022-12-16T10:48:00.933Z,54.60
2022-12-16T10:49:21.742Z,56.30
2022-12-16T10:52:06.883Z,51.00
2022-12-16T10:53:33.961Z,53.00
2022-12-16T10:55:03.628Z,53.00
2022-12-16T10:56:48.638Z,54.80
2022-12-16T10:58:38.865Z,54.70
2022-12-16T10:59:59.661Z,52.70
2022-12-16T11:01:20.416Z,54.20
2022-12-16T11:02:46.529Z,55.00
2022-12-16T11:04:07.533Z,53.90
2022-12-16T11:05:46.590Z,56.60
2022-12-16T11:07:06.965Z,54.00
2022-12-16T11:08:44.790Z,55.30
2022-12-16T11:10:05.362Z,55.40
2022-12-16T11:11:45.434Z,62.50
2022-12-16T11:13:05.734Z,60.90
2022-12-16T11:14:39.882Z,56.90
2022-12-16T11:16:00.565Z,60.20
2022-12-16T11:17:31.423Z,55.60
2022-12-16T11:18:51.864Z,58.10
2022-12-16T11:20:44.481Z,58.50
2022-12-16T11:22:22.207Z,55.70
2022-12-16T11:23:43.796Z,54.00
2022-12-16T11:25:21.461Z,55.80
2022-12-16T11:26:41.945Z,56.70
2022-12-16T11:28:23.073Z,56.90
2022-12-16T11:29:43.807Z,58.10
2022-12-16T11:31:13.772Z,56.30
2022-12-16T11:32:42.610Z,58.90
2022-12-16T11:34:03.966Z,57.30
2022-12-16T11:35:31.674Z,59.30
2022-12-16T11:36:55.944Z,57.10
2022-12-16T11:38:19.393Z,60.30
2022-12-16T11:39:42.251Z,58.30
2022-12-16T11:41:02.777Z,59.60
2022-12-16T11:42:24.160Z,60.20
2022-12-16T11:43:47.212Z,59.80
2022-12-16T11:45:13.843Z,57.80
2022-12-16T11:46:44.522Z,61.60
2022-12-16T11:48:08.959Z,62.90
2022-12-16T11:49:51.160Z,55.40
2022-12-16T11:51:15.447Z,61.40
2022-12-16T11:52:39.238Z,58.60
2022-12-16T11:54:25.946Z,56.80
2022-12-16T11:56:12.495Z,58.90
2022-12-16T11:57:46.791Z,53.80
2022-12-16T11:59:15.857Z,56.50
2022-12-16T12:00:37.603Z,59.90
2022-12-16T12:02:13.965Z,57.90
2022-12-16T12:03:42.750Z,59.60
2022-12-16T12:05:08.637Z,58.30
2022-12-16T12:06:32.274Z,59.00
2022-12-16T12:08:10.895Z,59.30
2022-12-16T12:09:37.348Z,61.20
2022-12-16T12:11:31.746Z,60.50
2022-12-16T12:13:04.412Z,56.30
2022-12-16T12:14:43.702Z,58.00
2022-12-16T12:16:15.826Z,60.10
2022-12-16T12:17:43.006Z,61.10
2022-12-16T12:19:15.409Z,56.60
2022-12-16T12:21:05.464Z,57.80
2022-12-16T12:22:51.002Z,57.40
2022-12-16T12:24:33.119Z,57.00
2022-12-16T12:26:00.619Z,56.00
2022-12-16T12:27:26.062Z,57.60
2022-12-16T12:28:53.133Z,58.40
2022-12-16T12:30:19.585Z,57.60
2022-12-16T12:31:58.671Z,57.20
2022-12-16T12:33:50.136Z,58.80
2022-12-16T12:35:30.685Z,59.00
2022-12-16T12:37:07.792Z,59.50
2022-12-16T12:38:42.400Z,57.90
2022-12-16T12:40:07.068Z,58.50
2022-12-16T12:41:57.020Z,57.50
2022-12-16T12:43:21.617Z,57.60
2022-12-16T12:45:18.823Z,58.40
2022-12-16T12:47:07.522Z,59.00
2022-12-16T12:48:46.725Z,55.90
2022-12-16T12:50:42.969Z,56.60
2022-12-16T12:52:28.991Z,56.00
2022-12-16T12:54:05.344Z,56.90
2022-12-16T12:55:43.406Z,56.50
2022-12-16T12:57:09.341Z,59.40
2022-12-16T12:58:31.324Z,57.10
2022-12-16T13:00:10.608Z,57.10
2022-12-16T13:01:33.330Z,58.00
2022-12-16T13:03:22.521Z,55.20
2022-12-16T13:04:45.872Z,56.90
2022-12-16T13:06:07.166Z,53.90
2022-12-16T13:07:27.946Z,56.60
2022-12-16T13:11:06.114Z,52.20
2022-12-16T13:12:26.869Z,55.10
2022-12-16T13:13:51.313Z,59.80
2022-12-16T13:15:14.562Z,56.40
2022-12-16T13:17:04.736Z,57.70
2022-12-16T13:18:25.075Z,57.60
2022-12-16T13:19:48.241Z,59.60
2022-12-16T13:21:11.375Z,55.60
2022-12-16T13:22:52.223Z,56.90
2022-12-16T13:24:13.120Z,56.90
2022-12-16T13:25:58.033Z,56.00
2022-12-16T13:27:19.698Z,55.70
2022-12-16T13:28:59.679Z,57.50
2022-12-16T13:30:29.225Z,57.40
2022-12-16T13:31:49.839Z,57.50
2022-12-16T13:33:33.808Z,61.30
2022-12-16T13:34:54.906Z,60.40
2022-12-16T13:36:17.762Z,57.70
2022-12-16T13:37:44.685Z,57.50
2022-12-16T13:39:08.133Z,58.80
2022-12-16T13:40:37.553Z,58.80
2022-12-16T13:41:57.534Z,58.50
2022-12-16T13:43:23.319Z,57.50
2022-12-16T13:45:02.582Z,58.20
2022-12-16T13:46:23.367Z,58.30
2022-12-16T13:47:52.504Z,57.80
2022-12-16T13:49:51.862Z,58.50
2022-12-16T13:51:18.605Z,54.80
2022-12-16T13:53:18.982Z,57.70
2022-12-16T13:54:54.193Z,58.60
2022-12-16T13:56:18.640Z,58.90
2022-12-16T13:57:42.842Z,59.70
2022-12-16T13:59:12.311Z,60.20
2022-12-16T14:00:41.757Z,59.90
2022-12-16T14:02:05.576Z,59.60
2022-12-16T14:04:03.206Z,59.60
2022-12-16T14:05:36.097Z,59.10
2022-12-16T14:06:58.177Z,59.20
2022-12-16T14:08:19.407Z,57.90
2022-12-16T14:09:46.289Z,59.90
2022-12-16T14:11:17.085Z,56.60
2022-12-16T14:12:57.353Z,58.70
2022-12-16T14:14:57.079Z,58.10
2022-12-16T14:16:51.186Z,57.50
2022-12-16T14:18:57.917Z,58.90
2022-12-16T14:20:30.480Z,55.50
2022-12-16T14:22:06.886Z,59.70
2022-12-16T14:23:55.874Z,60.60
2022-12-16T14:25:28.064Z,57.30
2022-12-16T14:26:48.959Z,57.20
2022-12-16T14:29:46.069Z,53.80
2022-12-16T14:31:06.314Z,56.30
2022-12-16T14:32:56.001Z,57.90
2022-12-16T14:34:19.273Z,59.30
2022-12-16T14:35:45.115Z,58.70
2022-12-16T14:37:06.205Z,58.50
2022-12-16T14:38:44.777Z,58.30
2022-12-16T14:40:07.367Z,55.70
2022-12-16T14:41:38.797Z,57.50
2022-12-16T14:43:00.137Z,58.70
2022-12-16T14:44:31.454Z,57.50
2022-12-16T14:45:54.526Z,55.50
2022-12-16T14:47:15.338Z,57.20
2022-12-16T14:50:12.715Z,57.10
2022-12-16T14:51:46.669Z,55.00
2022-12-16T14:53:40.580Z,56.80
2022-12-16T14:55:01.479Z,55.60
2022-12-16T14:56:37.606Z,56.30
2022-12-16T14:57:57.927Z,55.30
2022-12-16T14:59:31.600Z,54.80
2022-12-16T15:00:53.859Z,58.30
2022-12-16T15:02:17.037Z,55.80
2022-12-16T15:04:07.553Z,54.10
2022-12-16T15:05:28.906Z,54.20
2022-12-16T15:06:59.686Z,56.80
2022-12-16T15:09:55.916Z,52.00
2022-12-16T15:11:18.593Z,55.70
2022-12-16T15:12:42.083Z,54.60
2022-12-16T15:14:04.081Z,54.90
2022-12-16T15:15:31.624Z,54.70
2022-12-16T15:16:55.165Z,55.90
2022-12-16T15:18:19.894Z,55.80
2022-12-16T15:19:41.966Z,59.20
2022-12-16T15:21:08.844Z,54.70
2022-12-16T15:22:33.644Z,56.30
2022-12-16T15:23:59.153Z,55.50
2022-12-16T15:25:20.330Z,57.20
2022-12-16T15:26:43.870Z,55.30
2022-12-16T15:28:14.726Z,54.90
2022-12-16T15:29:56.470Z,56.10
2022-12-16T15:31:16.764Z,52.50
2022-12-16T15:32:43.313Z,56.50
2022-12-16T15:34:03.706Z,52.80
2022-12-16T15:35:23.963Z,51.10
2022-12-16T15:36:47.933Z,53.40
2022-12-16T15:38:08.322Z,50.80
2022-12-16T15:39:51.556Z,53.40
2022-12-16T15:41:11.710Z,46.60
2022-12-16T15:42:48.974Z,50.30
2022-12-16T15:44:10.588Z,46.80
2022-12-16T15:45:37.804Z,47.10
2022-12-16T15:47:05.005Z,44.40
2022-12-16T15:48:34.757Z,41.10
2022-12-16T15:50:03.514Z,38.30
2022-12-16T15:51:38.403Z,36.20
2022-12-16T15:53:01.785Z,33.50
2022-12-16T15:54:22.933Z,31.90
2022-12-16T15:55:49.574Z,30.90
2022-12-16T15:57:10.031Z,29.40
2022-12-16T15:58:49.667Z,30.30
2022-12-16T16:00:16.427Z,28.20
2022-12-16T16:01:40.328Z,28.30
2022-12-16T16:03:07.105Z,29.20
2022-12-16T16:04:36.474Z,28.20
2022-12-16T16:05:56.762Z,28.60
2022-12-16T16:07:17.393Z,29.20
2022-12-16T16:08:37.805Z,29.90
2022-12-16T16:09:58.435Z,29.40
2022-12-16T16:11:19.745Z,29.80
2022-12-16T16:12:41.695Z,30.50
2022-12-16T16:14:07.202Z,31.10
2022-12-16T16:15:32.654Z,31.90
2022-12-16T16:16:53.305Z,30.50
2022-12-16T16:19:41.997Z,30.10
2022-12-16T16:21:03.476Z,29.60
2022-12-16T16:22:31.877Z,30.90
2022-12-16T16:23:52.878Z,30.50
2022-12-16T16:26:37.151Z,28.60
2022-12-16T16:27:58.001Z,29.40
2022-12-16T16:29:18.719Z,28.20
2022-12-16T16:30:39.434Z,28.80
2022-12-16T16:32:04.091Z,28.70
2022-12-16T16:33:25.048Z,28.40
2022-12-16T16:34:46.473Z,25.80
2022-12-16T16:36:09.483Z,27.70
2022-12-16T16:37:36.645Z,27.20
2022-12-16T16:38:57.190Z,27.10
2022-12-16T16:40:18.133Z,27.50
2022-12-16T16:41:38.423Z,25.70
2022-12-16T16:42:58.650Z,27.60
2022-12-16T16:44:20.041Z,27.30
2022-12-16T16:45:41.081Z,28.90
2022-12-16T16:48:31.396Z,27.90
2022-12-16T16:49:57.738Z,28.40
2022-12-16T16:51:19.531Z,30.30
2022-12-16T16:52:42.918Z,29.50
2022-12-16T16:54:03.961Z,30.30
2022-12-16T16:55:24.972Z,31.10
2022-12-16T16:56:47.097Z,31.80
2022-12-16T16:58:07.840Z,31.10
2022-12-16T17:00:50.704Z,29.30
2022-12-16T17:02:33.783Z,29.30
2022-12-16T17:03:58.253Z,27.70
2022-12-16T17:06:38.843Z,28.80
2022-12-16T17:07:59.156Z,27.30
2022-12-16T17:09:19.474Z,28.00
2022-12-16T17:10:39.488Z,27.80
2022-12-16T17:12:00.090Z,27.60
2022-12-16T17:14:41.011Z,27.20
2022-12-16T17:16:01.244Z,28.00
2022-12-16T17:17:22.917Z,26.20
2022-12-16T17:18:47.804Z,28.80
2022-12-16T17:20:10.884Z,27.50
2022-12-16T17:21:32.017Z,26.10
2022-12-16T17:22:52.520Z,25.40
2022-12-16T17:25:34.052Z,24.20
2022-12-16T17:28:19.049Z,24.80
2022-12-16T17:29:42.661Z,25.70
2022-12-16T17:31:03.663Z,26.80
2022-12-16T17:32:24.222Z,26.40
2022-12-16T17:33:44.531Z,26.40
2022-12-16T17:35:05.096Z,27.60
2022-12-16T17:36:32.024Z,29.60
2022-12-16T17:37:52.584Z,30.30
2022-12-16T17:39:12.785Z,28.60
2022-12-16T17:40:33.629Z,30.90
2022-12-16T17:43:14.209Z,29.50
2022-12-16T17:44:34.753Z,27.60
2022-12-16T17:45:54.716Z,25.90
2022-12-16T17:47:15.162Z,24.80
2022-12-16T17:48:35.318Z,25.00
2022-12-16T17:49:55.725Z,24.40
2022-12-16T17:51:22.361Z,25.70
2022-12-16T17:52:42.814Z,24.60
2022-12-16T17:54:09.723Z,26.50
2022-12-16T17:55:35.145Z,26.80
2022-12-16T17:56:55.882Z,28.00
2022-12-16T17:58:16.493Z,27.30
2022-12-16T17:59:36.869Z,28.00
2022-12-16T18:00:57.717Z,29.70
2022-12-16T18:02:18.943Z,27.90
2022-12-16T18:03:39.970Z,30.70
2022-12-16T18:05:01.362Z,30.10
2022-12-16T18:06:22.776Z,29.40
2022-12-16T18:07:43.751Z,29.80
2022-12-16T18:09:03.935Z,28.20
2022-12-16T18:10:24.776Z,28.80
2022-12-16T18:13:06.619Z,28.00
2022-12-16T18:14:28.142Z,27.30
2022-12-16T18:17:10.226Z,28.00
2022-12-16T18:18:34.084Z,28.90
2022-12-16T18:19:54.579Z,30.00
2022-12-16T18:21:15.247Z,27.80
2022-12-16T18:22:35.531Z,29.60
2022-12-16T18:23:56.533Z,31.00
2022-12-16T18:26:44.156Z,28.80
2022-12-16T18:28:04.176Z,29.10
2022-12-16T18:29:25.211Z,27.40
2022-12-16T18:32:07.350Z,25.20
2022-12-16T18:33:28.929Z,26.10
2022-12-16T18:34:49.749Z,24.10
2022-12-16T18:36:09.787Z,22.60
2022-12-16T18:37:33.004Z,23.40
2022-12-16T18:38:57.171Z,22.40
2022-12-16T18:41:50.969Z,23.70
2022-12-16T18:43:19.023Z,22.40
2022-12-16T18:44:39.323Z,24.60
2022-12-16T18:46:00.127Z,24.60
2022-12-16T18:47:22.574Z,23.90
2022-12-16T18:48:45.780Z,23.40
2022-12-16T18:50:09.223Z,23.70
2022-12-16T18:51:30.406Z,23.80
2022-12-16T18:52:51.339Z,22.80
2022-12-16T18:54:12.683Z,20.50
2022-12-16T18:55:36.939Z,21.50
2022-12-16T18:56:58.415Z,18.80
2022-12-16T18:59:59.516Z,20.40
2022-12-16T19:01:21.603Z,22.40
2022-12-16T19:02:42.988Z,24.00
2022-12-16T19:04:03.218Z,23.70
2022-12-16T19:05:23.538Z,23.70
2022-12-16T19:06:44.176Z,24.70
2022-12-16T19:09:29.237Z,19.70
2022-12-16T19:10:49.527Z,21.80
2022-12-16T19:12:09.841Z,20.30
2022-12-16T19:13:34.826Z,19.80
2022-12-16T19:14:55.319Z,18.70
2022-12-16T19:16:17.523Z,19.30
2022-12-16T19:17:37.806Z,19.50
2022-12-16T19:18:58.853Z,22.20
2022-12-16T19:21:39.585Z,18.50